createdAt,value
2018-06-23T00:00:55.500Z,10.00
2018-06-23T00:03:24.495Z,9.94
2018-06-23T00:05:53.156Z,9.91
2018-06-23T00:08:21.793Z,9.87
2018-06-23T00:10:50.413Z,9.83
2018-06-23T00:13:18.991Z,9.79
2018-06-23T00:15:47.696Z,9.77
2018-06-23T00:18:16.335Z,9.73
2018-06-23T00:20:45.097Z,9.68
2018-06-23T00:23:13.822Z,9.65
2018-06-23T00:25:48.049Z,9.63
2018-06-23T00:28:16.617Z,9.63
2018-06-23T00:30:45.320Z,9.60
2018-06-23T00:33:13.982Z,9.58
2018-06-23T00:35:42.843Z,9.57
2018-06-23T00:38:11.504Z,9.55
2018-06-23T00:40:40.300Z,9.57
2018-06-23T00:43:09.006Z,9.58
2018-06-23T00:45:37.720Z,9.57
2018-06-23T00:48:06.456Z,9.56
2018-06-23T00:50:35.299Z,9.53
2018-06-23T00:53:03.962Z,9.51
2018-06-23T00:55:32.624Z,9.48
2018-06-23T00:58:01.353Z,9.45
2018-06-23T01:00:29.983Z,9.41
2018-06-23T01:02:58.860Z,9.37
2018-06-23T01:05:27.685Z,9.35
2018-06-23T01:07:56.383Z,9.27
2018-06-23T01:10:25.026Z,9.21
2018-06-23T01:12:53.815Z,9.18
2018-06-23T01:15:22.642Z,9.20
2018-06-23T01:17:51.405Z,9.22
2018-06-23T01:20:20.257Z,9.25
2018-06-23T01:22:49.120Z,9.24
2018-06-23T01:25:18.027Z,9.26
2018-06-23T01:27:46.743Z,9.24
2018-06-23T01:30:15.385Z,9.26
2018-06-23T01:32:43.977Z,9.25
2018-06-23T01:35:12.529Z,9.26
2018-06-23T01:37:41.212Z,9.29
2018-06-23T01:40:10.108Z,9.31
2018-06-23T01:42:38.921Z,9.29
2018-06-23T01:45:08.218Z,9.28
2018-06-23T01:47:37.037Z,9.24
2018-06-23T01:50:06.115Z,9.24
2018-06-23T01:52:35.032Z,9.21
2018-06-23T01:55:03.916Z,9.18
2018-06-23T01:57:32.665Z,9.15
2018-06-23T02:00:01.369Z,9.14
2018-06-23T02:02:30.305Z,9.09
2018-06-23T02:04:59.247Z,9.05
2018-06-23T02:07:28.003Z,9.03
2018-06-23T02:09:56.750Z,9.00
2018-06-23T02:12:25.549Z,8.97
2018-06-23T02:14:59.481Z,8.92
2018-06-23T02:17:33.481Z,8.91
2018-06-23T02:20:07.472Z,8.87
2018-06-23T02:22:41.262Z,8.83
2018-06-23T02:25:15.154Z,8.78
2018-06-23T02:27:49.071Z,8.74
2018-06-23T02:30:22.981Z,8.66
2018-06-23T02:32:52.860Z,8.63
2018-06-23T02:35:22.158Z,8.60
2018-06-23T02:37:50.928Z,8.56
2018-06-23T02:40:19.897Z,8.53
2018-06-23T02:42:48.591Z,8.51
2018-06-23T02:45:17.525Z,8.48
2018-06-23T02:47:46.446Z,8.46
2018-06-23T02:50:15.247Z,8.43
2018-06-23T02:52:43.927Z,8.38
2018-06-23T02:55:12.564Z,8.36
2018-06-23T02:57:41.374Z,8.35
2018-06-23T03:00:10.174Z,8.34
2018-06-23T03:02:38.962Z,8.34
2018-06-23T03:05:07.782Z,8.32
2018-06-23T03:07:36.689Z,8.33
2018-06-23T03:10:05.811Z,8.35
2018-06-23T03:12:34.701Z,8.36
2018-06-23T03:15:03.377Z,8.39
2018-06-23T03:17:32.008Z,8.41
2018-06-23T03:20:00.992Z,8.45
2018-06-23T03:22:29.772Z,8.56
2018-06-23T03:24:58.474Z,8.68
2018-06-23T03:27:27.590Z,8.83
2018-06-23T03:29:56.273Z,9.03
2018-06-23T03:32:25.122Z,9.23
2018-06-23T03:34:54.583Z,9.42
2018-06-23T03:37:23.281Z,9.71
2018-06-23T03:39:51.883Z,10.01
2018-06-23T03:42:20.743Z,10.34
2018-06-23T03:44:49.488Z,10.72
2018-06-23T03:47:18.206Z,11.14
2018-06-23T03:49:47.086Z,11.59
2018-06-23T03:52:15.813Z,11.96
2018-06-23T03:54:44.624Z,12.34
2018-06-23T03:57:13.438Z,11.34
2018-06-23T03:59:42.301Z,13.03
2018-06-23T04:02:10.931Z,13.52
2018-06-23T04:04:39.873Z,13.91
2018-06-23T04:07:08.627Z,14.20
2018-06-23T04:09:37.355Z,14.48
2018-06-23T04:12:06.378Z,14.86
2018-06-23T04:14:35.106Z,15.12
2018-06-23T04:17:03.708Z,15.56
2018-06-23T04:19:32.504Z,15.96
2018-06-23T04:22:01.416Z,16.54
2018-06-23T04:24:30.389Z,16.49
2018-06-23T04:26:59.217Z,16.98
2018-06-23T04:29:27.961Z,17.05
2018-06-23T04:31:56.759Z,16.91
2018-06-23T04:34:25.484Z,16.98
2018-06-23T04:36:54.109Z,17.29
2018-06-23T04:39:22.723Z,17.62
2018-06-23T04:41:51.596Z,18.14
2018-06-23T04:44:20.260Z,18.17
2018-06-23T04:46:49.118Z,18.61
2018-06-23T04:49:18.066Z,19.25
2018-06-23T04:51:46.804Z,19.48
2018-06-23T04:54:15.544Z,19.78
2018-06-23T04:56:44.342Z,20.11
2018-06-23T04:59:13.182Z,20.42
2018-06-23T05:01:41.872Z,20.85
2018-06-23T05:04:10.517Z,21.43
2018-06-23T05:06:39.395Z,20.97
2018-06-23T05:09:08.319Z,21.64
2018-06-23T05:11:37.208Z,22.03
2018-06-23T05:14:06.008Z,21.60
2018-06-23T05:16:34.788Z,22.59
2018-06-23T05:19:03.572Z,22.96
2018-06-23T05:21:32.419Z,24.10
2018-06-23T05:24:01.272Z,24.38
2018-06-23T05:26:30.239Z,24.87
2018-06-23T05:28:58.841Z,25.38
2018-06-23T05:31:27.547Z,25.55
2018-06-23T05:33:56.316Z,25.20
2018-06-23T05:36:25.199Z,25.32
2018-06-23T05:38:53.804Z,25.29
2018-06-23T05:41:22.866Z,25.52
2018-06-23T05:43:51.720Z,26.12
2018-06-23T05:46:21.515Z,26.77
2018-06-23T05:48:50.281Z,27.37
2018-06-23T05:51:19.210Z,28.11
2018-06-23T05:53:47.953Z,27.30
2018-06-23T05:56:16.697Z,28.03
2018-06-23T05:58:45.464Z,26.78
2018-06-23T06:01:14.124Z,26.69
2018-06-23T06:03:43.237Z,25.92
2018-06-23T06:06:11.884Z,25.87
2018-06-23T06:08:40.640Z,26.28
2018-06-23T06:11:09.534Z,27.23
2018-06-23T06:13:38.230Z,26.64
2018-06-23T06:16:06.956Z,26.21
2018-06-23T06:18:35.647Z,27.01
2018-06-23T06:21:04.362Z,27.03
2018-06-23T06:23:33.093Z,28.02
2018-06-23T06:26:01.832Z,28.65
2018-06-23T06:28:30.474Z,28.67
2018-06-23T06:30:59.260Z,28.43
2018-06-23T06:33:27.932Z,27.72
2018-06-23T06:35:56.477Z,27.52
2018-06-23T06:38:25.138Z,27.47
2018-06-23T06:40:53.860Z,27.54
2018-06-23T06:43:22.407Z,27.03
2018-06-23T06:45:50.959Z,26.91
2018-06-23T06:48:19.508Z,26.59
2018-06-23T06:50:48.065Z,25.24
2018-06-23T06:53:16.584Z,26.06
2018-06-23T06:55:46.023Z,24.83
2018-06-23T06:58:14.614Z,23.10
2018-06-23T07:00:43.301Z,25.14
2018-06-23T07:03:11.845Z,26.64
2018-06-23T07:05:40.391Z,28.19
2018-06-23T07:08:08.902Z,28.53
2018-06-23T07:10:37.436Z,30.27
2018-06-23T07:13:05.943Z,30.17
2018-06-23T07:15:34.497Z,28.32
2018-06-23T07:18:03.126Z,29.08
2018-06-23T07:20:31.677Z,30.84
2018-06-23T07:23:00.238Z,32.12
2018-06-23T07:25:28.828Z,32.04
2018-06-23T07:27:57.371Z,33.44
2018-06-23T07:30:25.904Z,33.51
2018-06-23T07:32:54.492Z,33.06
2018-06-23T07:35:23.018Z,33.07
2018-06-23T07:37:51.585Z,32.79
2018-06-23T07:40:20.112Z,31.77
2018-06-23T07:42:48.619Z,33.29
2018-06-23T07:45:17.130Z,29.47
2018-06-23T07:47:45.734Z,31.68
2018-06-23T07:50:14.213Z,33.46
2018-06-23T07:52:42.752Z,34.62
2018-06-23T07:55:11.294Z,35.11
2018-06-23T07:57:39.854Z,35.26
2018-06-23T08:00:08.379Z,34.03
2018-06-23T08:02:36.992Z,33.54
2018-06-23T08:05:05.505Z,33.99
2018-06-23T08:07:34.021Z,34.94
2018-06-23T08:10:02.570Z,34.13
2018-06-23T08:12:31.106Z,31.42
2018-06-23T08:14:59.644Z,31.67
2018-06-23T08:17:28.188Z,29.68
2018-06-23T08:19:56.710Z,27.77
2018-06-23T08:22:25.213Z,26.01
2018-06-23T08:24:53.763Z,25.33
2018-06-23T08:27:22.286Z,24.86
2018-06-23T08:29:50.806Z,24.91
2018-06-23T08:32:19.402Z,23.80
2018-06-23T08:34:47.950Z,23.21
2018-06-23T08:37:16.444Z,23.38
2018-06-23T08:39:45.156Z,22.51
2018-06-23T08:42:13.785Z,21.98
2018-06-23T08:44:42.433Z,22.29
2018-06-23T08:47:11.120Z,21.96
2018-06-23T08:49:39.620Z,21.44
2018-06-23T08:52:08.133Z,21.05
2018-06-23T08:54:36.668Z,20.96
2018-06-23T08:57:05.206Z,20.56
2018-06-23T08:59:33.709Z,20.53
2018-06-23T09:02:02.278Z,20.19
2018-06-23T09:04:30.860Z,19.65
2018-06-23T09:06:59.405Z,19.40
2018-06-23T09:09:28.566Z,19.88
2018-06-23T09:11:57.740Z,21.27
2018-06-23T09:14:26.922Z,21.99
2018-06-23T09:16:56.237Z,24.53
2018-06-23T09:19:25.417Z,24.20
2018-06-23T09:21:54.602Z,22.92
2018-06-23T09:24:23.817Z,22.14
2018-06-23T09:26:53.245Z,21.70
2018-06-23T09:29:22.357Z,21.25
2018-06-23T09:31:51.520Z,21.20
2018-06-23T09:34:20.643Z,21.35
2018-06-23T09:36:49.877Z,22.72
2018-06-23T09:39:19.003Z,23.27
2018-06-23T09:41:48.120Z,22.46
2018-06-23T09:44:17.268Z,21.93
2018-06-23T09:46:46.427Z,21.47
2018-06-23T09:49:15.520Z,21.43
2018-06-23T09:51:44.958Z,21.84
2018-06-23T09:54:14.908Z,22.17
2018-06-23T09:56:44.024Z,22.31
2018-06-23T09:59:13.169Z,21.96
2018-06-23T10:01:41.788Z,21.65
2018-06-23T10:04:10.868Z,21.43
2018-06-23T10:06:40.020Z,21.11
2018-06-23T10:09:10.573Z,21.01
2018-06-23T10:11:39.615Z,20.91
2018-06-23T10:14:08.892Z,21.07
2018-06-23T10:16:38.029Z,21.51
2018-06-23T10:19:07.279Z,22.89
2018-06-23T10:21:36.447Z,25.24
2018-06-23T10:24:05.678Z,24.15
2018-06-23T10:26:34.714Z,23.69
2018-06-23T10:29:04.248Z,23.36
2018-06-23T10:31:33.448Z,23.69
2018-06-23T10:34:02.547Z,24.53
2018-06-23T10:36:31.625Z,25.48
2018-06-23T10:39:00.724Z,28.18
2018-06-23T10:41:29.810Z,28.64
2018-06-23T10:43:58.977Z,28.40
2018-06-23T10:46:28.206Z,28.89
2018-06-23T10:48:57.234Z,26.85
2018-06-23T10:51:26.553Z,25.51
2018-06-23T10:53:55.641Z,25.05
2018-06-23T10:56:24.750Z,24.73
2018-06-23T10:58:55.227Z,24.55
2018-06-23T11:01:24.300Z,24.71
2018-06-23T11:03:53.413Z,24.83
2018-06-23T11:06:22.580Z,24.88
2018-06-23T11:08:51.797Z,24.29
2018-06-23T11:11:20.925Z,23.87
2018-06-23T11:13:50.047Z,23.30
2018-06-23T11:16:19.149Z,22.83
2018-06-23T11:18:48.269Z,22.85
2018-06-23T11:21:17.383Z,23.26
2018-06-23T11:23:46.635Z,23.43
2018-06-23T11:26:15.828Z,23.95
2018-06-23T11:28:44.948Z,24.58
2018-06-23T11:31:14.454Z,24.34
2018-06-23T11:33:43.578Z,24.51
2018-06-23T11:36:12.852Z,24.98
2018-06-23T11:38:41.951Z,25.29
2018-06-23T11:41:11.060Z,25.59
2018-06-23T11:43:40.159Z,25.28
2018-06-23T11:46:09.264Z,25.30
2018-06-23T11:48:38.332Z,25.03
2018-06-23T11:51:07.618Z,25.02
2018-06-23T11:53:36.680Z,24.46
2018-06-23T11:56:05.964Z,24.23
2018-06-23T11:58:35.110Z,24.32
2018-06-23T12:01:04.293Z,23.84
2018-06-23T12:03:33.415Z,23.61
2018-06-23T12:06:02.604Z,23.71
2018-06-23T12:08:31.734Z,23.65
2018-06-23T12:11:00.842Z,23.74
2018-06-23T12:13:29.993Z,24.03
2018-06-23T12:15:59.092Z,24.17
2018-06-23T12:18:28.160Z,23.74
2018-06-23T12:20:57.321Z,23.74
2018-06-23T12:23:26.521Z,23.79
2018-06-23T12:25:55.685Z,23.12
2018-06-23T12:28:24.811Z,22.86
2018-06-23T12:30:53.933Z,23.12
2018-06-23T12:33:23.069Z,23.51
2018-06-23T12:35:52.206Z,23.47
2018-06-23T12:38:21.298Z,23.36
2018-06-23T12:40:50.560Z,22.99
2018-06-23T12:43:19.757Z,22.51
2018-06-23T12:45:48.836Z,22.52
2018-06-23T12:48:17.994Z,22.71
2018-06-23T12:50:47.196Z,23.23
2018-06-23T12:53:16.326Z,23.46
2018-06-23T12:55:45.389Z,23.67
2018-06-23T12:58:14.770Z,23.63
2018-06-23T13:00:43.958Z,23.97
2018-06-23T13:03:12.995Z,24.02
2018-06-23T13:05:42.161Z,24.07
2018-06-23T13:08:11.324Z,24.02
2018-06-23T13:10:40.560Z,23.81
2018-06-23T13:13:09.676Z,24.04
2018-06-23T13:15:38.774Z,24.02
2018-06-23T13:18:08.718Z,23.62
2018-06-23T13:20:38.094Z,23.92
2018-06-23T13:23:07.249Z,23.92
2018-06-23T13:25:36.420Z,23.44
2018-06-23T13:28:05.620Z,23.59
2018-06-23T13:30:34.838Z,23.30
2018-06-23T13:33:03.972Z,23.11
2018-06-23T13:35:33.146Z,22.75
2018-06-23T13:38:02.209Z,22.75
2018-06-23T13:40:31.331Z,22.82
2018-06-23T13:43:00.459Z,22.99
2018-06-23T13:45:29.672Z,22.73
2018-06-23T13:47:58.743Z,22.91
2018-06-23T13:50:27.831Z,22.92
2018-06-23T13:52:56.901Z,22.76
2018-06-23T13:55:26.010Z,22.77
2018-06-23T13:57:55.106Z,22.71
2018-06-23T14:00:24.238Z,22.38
2018-06-23T14:02:53.303Z,22.62
2018-06-23T14:05:22.421Z,22.73
2018-06-23T14:07:51.704Z,22.93
2018-06-23T14:10:20.909Z,23.27
2018-06-23T14:12:49.959Z,23.33
2018-06-23T14:15:19.112Z,23.54
2018-06-23T14:17:48.218Z,23.71
2018-06-23T14:20:17.366Z,23.98
2018-06-23T14:22:46.484Z,23.62
2018-06-23T14:25:15.685Z,23.64
2018-06-23T14:27:44.817Z,23.38
2018-06-23T14:30:14.150Z,23.52
2018-06-23T14:32:43.222Z,23.40
2018-06-23T14:35:12.295Z,23.30
2018-06-23T14:37:41.539Z,23.36
2018-06-23T14:40:10.730Z,23.63
2018-06-23T14:42:39.944Z,23.69
2018-06-23T14:45:09.187Z,23.83
2018-06-23T14:47:38.345Z,23.67
2018-06-23T14:50:07.478Z,23.45
2018-06-23T14:52:36.732Z,23.43
2018-06-23T14:55:05.849Z,23.31
2018-06-23T14:57:34.993Z,22.99
2018-06-23T15:00:04.222Z,23.05
2018-06-23T15:02:33.297Z,22.89
2018-06-23T15:05:02.437Z,22.93
2018-06-23T15:07:31.529Z,22.67
2018-06-23T15:10:11.548Z,22.50
2018-06-23T15:12:51.742Z,22.45
2018-06-23T15:15:20.848Z,22.21
2018-06-23T15:17:49.927Z,22.18
2018-06-23T15:20:18.629Z,22.11
2018-06-23T15:22:47.694Z,22.28
2018-06-23T15:25:16.761Z,22.36
2018-06-23T15:27:45.915Z,22.34
2018-06-23T15:30:14.977Z,22.23
2018-06-23T15:32:44.040Z,22.12
2018-06-23T15:35:13.165Z,21.96
2018-06-23T15:37:42.256Z,21.88
2018-06-23T15:40:11.388Z,21.79
2018-06-23T15:42:40.500Z,21.79
2018-06-23T15:45:09.011Z,21.71
2018-06-23T15:47:38.084Z,21.47
2018-06-23T15:50:07.244Z,21.24
2018-06-23T15:52:36.416Z,21.05
2018-06-23T15:55:05.517Z,20.83
2018-06-23T15:57:34.677Z,20.62
2018-06-23T16:00:03.769Z,20.54
2018-06-23T16:02:32.963Z,20.44
2018-06-23T16:05:02.063Z,20.41
2018-06-23T16:07:31.172Z,20.34
2018-06-23T16:10:00.349Z,20.61
2018-06-23T16:12:29.469Z,21.02
2018-06-23T16:14:58.626Z,21.59
2018-06-23T16:17:27.629Z,22.16
2018-06-23T16:19:56.761Z,22.68
2018-06-23T16:22:25.933Z,23.16
2018-06-23T16:24:55.028Z,23.57
2018-06-23T16:27:24.542Z,23.95
2018-06-23T16:29:55.038Z,24.27
2018-06-23T16:32:24.607Z,24.55
2018-06-23T16:34:53.878Z,24.78
2018-06-23T16:37:23.080Z,24.98
2018-06-23T16:39:52.426Z,25.14
2018-06-23T16:42:21.595Z,25.32
2018-06-23T16:44:50.957Z,25.44
2018-06-23T16:47:20.128Z,25.56
2018-06-23T16:49:49.696Z,25.66
2018-06-23T16:52:18.779Z,25.75
2018-06-23T16:54:47.957Z,25.82
2018-06-23T16:57:17.619Z,25.87
2018-06-23T16:59:46.748Z,25.94
2018-06-23T17:02:16.049Z,25.97
2018-06-23T17:04:45.208Z,26.01
2018-06-23T17:07:14.543Z,26.05
2018-06-23T17:09:44.375Z,26.07
2018-06-23T17:12:13.850Z,26.07
2018-06-23T17:14:42.905Z,26.11
2018-06-23T17:17:12.373Z,26.13
2018-06-23T17:19:41.567Z,26.13
2018-06-23T17:22:10.956Z,26.13
2018-06-23T17:24:40.484Z,26.14
2018-06-23T17:27:09.618Z,26.16
2018-06-23T17:29:38.759Z,26.15
2018-06-23T17:32:07.890Z,26.16
2018-06-23T17:34:37.349Z,26.18
2018-06-23T17:37:06.626Z,26.17
2018-06-23T17:39:35.776Z,26.19
2018-06-23T17:42:04.869Z,26.18
2018-06-23T17:44:33.889Z,26.19
2018-06-23T17:47:03.128Z,26.18
2018-06-23T17:49:32.152Z,26.20
2018-06-23T17:52:01.204Z,26.18
2018-06-23T17:54:30.359Z,26.17
2018-06-23T17:56:59.544Z,26.15
2018-06-23T17:59:28.630Z,26.15
2018-06-23T18:01:57.734Z,26.13
2018-06-23T18:04:26.847Z,26.11
2018-06-23T18:06:55.969Z,26.09
2018-06-23T18:09:25.085Z,26.08
2018-06-23T18:11:54.242Z,26.06
2018-06-23T18:14:23.400Z,26.08
2018-06-23T18:16:52.550Z,26.10
2018-06-23T18:19:21.620Z,26.09
2018-06-23T18:21:50.742Z,26.11
2018-06-23T18:24:19.844Z,26.10
2018-06-23T18:26:49.177Z,26.09
2018-06-23T18:29:18.336Z,26.09
2018-06-23T18:31:47.496Z,26.10
2018-06-23T18:34:16.681Z,26.11
2018-06-23T18:36:45.873Z,26.12
2018-06-23T18:39:15.072Z,26.11
2018-06-23T18:41:44.120Z,26.11
2018-06-23T18:44:13.453Z,26.09
2018-06-23T18:46:42.613Z,26.09
2018-06-23T18:49:11.725Z,26.08
2018-06-23T18:51:40.778Z,26.07
2018-06-23T18:54:09.958Z,26.07
2018-06-23T18:56:39.029Z,26.08
2018-06-23T18:59:08.119Z,26.07
2018-06-23T19:01:37.378Z,26.07
2018-06-23T19:04:06.720Z,26.07
2018-06-23T19:06:35.833Z,26.06
2018-06-23T19:09:07.335Z,26.07
2018-06-23T19:11:36.475Z,26.07
2018-06-23T19:14:05.838Z,26.09
2018-06-23T19:16:35.126Z,26.10
2018-06-23T19:19:04.312Z,26.09
2018-06-23T19:21:33.409Z,26.08
2018-06-23T19:24:02.493Z,26.08
2018-06-23T19:26:31.665Z,26.05
2018-06-23T19:29:00.736Z,26.05
2018-06-23T19:31:29.876Z,26.07
2018-06-23T19:33:58.961Z,26.06
2018-06-23T19:36:28.082Z,26.06
2018-06-23T19:38:57.233Z,26.06
2018-06-23T19:41:27.748Z,26.05
2018-06-23T19:43:56.984Z,26.05
2018-06-23T19:46:26.943Z,26.04
2018-06-23T19:48:56.496Z,26.04
2018-06-23T19:51:25.595Z,26.05
2018-06-23T19:53:54.812Z,26.05
2018-06-23T19:56:23.964Z,26.06
2018-06-23T19:58:53.091Z,26.05
2018-06-23T20:01:22.167Z,26.05
2018-06-23T20:03:51.328Z,26.04
2018-06-23T20:06:20.472Z,26.04
2018-06-23T20:08:49.629Z,26.04
2018-06-23T20:11:18.808Z,26.05
2018-06-23T20:13:47.910Z,26.02
2018-06-23T20:16:17.084Z,26.03
2018-06-23T20:18:46.209Z,26.03
2018-06-23T20:21:15.372Z,26.02
2018-06-23T20:23:44.518Z,26.02
2018-06-23T20:26:13.703Z,26.02
2018-06-23T20:28:42.834Z,26.02
2018-06-23T20:31:11.928Z,26.02
2018-06-23T20:33:41.180Z,26.01
2018-06-23T20:36:10.443Z,26.00
2018-06-23T20:38:39.268Z,26.00
2018-06-23T20:41:08.448Z,25.99
2018-06-23T20:43:37.196Z,25.99
2018-06-23T20:46:05.851Z,25.98
2018-06-23T20:48:34.446Z,25.98
2018-06-23T20:51:03.162Z,25.97
2018-06-23T20:53:31.834Z,25.97
2018-06-23T20:56:00.556Z,25.97
2018-06-23T20:58:29.260Z,25.96
2018-06-23T21:00:57.969Z,25.97
2018-06-23T21:03:26.824Z,25.96
2018-06-23T21:05:55.582Z,25.95
2018-06-23T21:08:24.208Z,25.95
2018-06-23T21:10:52.910Z,25.94
2018-06-23T21:13:21.647Z,25.94
2018-06-23T21:15:50.595Z,25.93
2018-06-23T21:18:19.301Z,25.93
2018-06-23T21:20:48.137Z,25.92
2018-06-23T21:23:17.096Z,25.93
2018-06-23T21:25:45.862Z,25.92
2018-06-23T21:28:14.685Z,25.90
2018-06-23T21:30:43.516Z,25.90
2018-06-23T21:33:12.199Z,25.89
2018-06-23T21:35:40.868Z,25.89
2018-06-23T21:38:09.618Z,25.90
2018-06-23T21:40:38.422Z,25.89
2018-06-23T21:43:07.259Z,25.90
2018-06-23T21:45:35.884Z,25.89
2018-06-23T21:48:04.652Z,25.88
2018-06-23T21:50:33.492Z,25.88
2018-06-23T21:53:02.328Z,25.88
2018-06-23T21:55:31.056Z,25.86
2018-06-23T21:57:59.879Z,25.86
2018-06-23T22:00:44.735Z,24.69
2018-06-23T22:03:14.704Z,25.86
2018-06-23T22:05:43.422Z,25.84
2018-06-23T22:08:12.511Z,25.84
2018-06-23T22:10:41.716Z,25.83
2018-06-23T22:13:10.622Z,25.83
2018-06-23T22:15:39.499Z,25.83
2018-06-23T22:18:08.125Z,25.83
2018-06-23T22:20:36.915Z,25.83
2018-06-23T22:23:05.554Z,25.82
2018-06-23T22:25:34.338Z,25.82
2018-06-23T22:28:03.060Z,25.82
2018-06-23T22:30:31.724Z,25.82
2018-06-23T22:33:00.459Z,25.81
2018-06-23T22:35:29.276Z,25.80
2018-06-23T22:37:58.068Z,25.80
2018-06-23T22:40:26.714Z,25.79
2018-06-23T22:42:55.774Z,25.79
2018-06-23T22:45:24.764Z,25.79
2018-06-23T22:47:53.643Z,25.78
2018-06-23T22:50:22.334Z,25.79
2018-06-23T22:52:51.111Z,25.79
2018-06-23T22:55:19.922Z,25.78
2018-06-23T22:57:48.791Z,25.78
2018-06-23T23:00:17.793Z,25.77
2018-06-23T23:02:46.496Z,25.76
2018-06-23T23:05:15.256Z,25.76
2018-06-23T23:07:43.971Z,25.76
2018-06-23T23:10:12.818Z,25.76
2018-06-23T23:12:41.843Z,25.75
2018-06-23T23:15:10.609Z,25.75
2018-06-23T23:17:39.481Z,25.74
2018-06-23T23:20:08.123Z,25.75
2018-06-23T23:22:36.964Z,25.73
2018-06-23T23:25:05.742Z,25.73
2018-06-23T23:27:34.397Z,25.73
2018-06-23T23:30:03.208Z,25.73
2018-06-23T23:32:32.025Z,25.72
2018-06-23T23:35:00.829Z,25.72
2018-06-23T23:37:29.669Z,25.72
2018-06-23T23:39:58.521Z,25.72
2018-06-23T23:42:27.191Z,25.72
2018-06-23T23:44:56.034Z,25.72
2018-06-23T23:47:24.775Z,25.70
2018-06-23T23:49:53.499Z,25.70
2018-06-23T23:52:22.077Z,25.69
2018-06-23T23:54:50.850Z,25.69
2018-06-23T23:57:19.748Z,25.68
2018-06-23T23:59:48.718Z,25.68
